sensor_id;sensor_type;location;lat;lon;timestamp;temperature;humidity
55135;DHT22;41031;44.750;11.308;2023-02-13T00:00:22;4.60;80.60
55135;DHT22;41031;44.750;11.308;2023-02-13T00:02:50;4.60;80.40
55135;DHT22;41031;44.750;11.308;2023-02-13T00:05:17;4.60;81.00
55135;DHT22;41031;44.750;11.308;2023-02-13T00:07:44;4.60;80.90
55135;DHT22;41031;44.750;11.308;2023-02-13T00:10:11;4.60;81.70
55135;DHT22;41031;44.750;11.308;2023-02-13T00:12:39;4.60;81.30
55135;DHT22;41031;44.750;11.308;2023-02-13T00:15:07;4.60;82.20
55135;DHT22;41031;44.750;11.308;2023-02-13T00:17:34;4.60;82.00
55135;DHT22;41031;44.750;11.308;2023-02-13T00:20:01;4.60;81.90
55135;DHT22;41031;44.750;11.308;2023-02-13T00:22:28;4.60;81.90
55135;DHT22;41031;44.750;11.308;2023-02-13T00:24:55;4.50;81.80
55135;DHT22;41031;44.750;11.308;2023-02-13T00:27:22;4.50;81.80
55135;DHT22;41031;44.750;11.308;2023-02-13T00:29:49;4.50;81.90
55135;DHT22;41031;44.750;11.308;2023-02-13T00:32:16;4.40;82.10
55135;DHT22;41031;44.750;11.308;2023-02-13T00:34:43;4.40;82.50
55135;DHT22;41031;44.750;11.308;2023-02-13T00:37:10;4.40;82.70
55135;DHT22;41031;44.750;11.308;2023-02-13T00:39:37;4.40;82.90
55135;DHT22;41031;44.750;11.308;2023-02-13T00:42:05;4.40;83.10
55135;DHT22;41031;44.750;11.308;2023-02-13T00:44:31;4.50;83.20
55135;DHT22;41031;44.750;11.308;2023-02-13T00:47:00;4.40;83.20
55135;DHT22;41031;44.750;11.308;2023-02-13T00:49:27;4.40;83.20
55135;DHT22;41031;44.750;11.308;2023-02-13T00:51:54;4.40;83.40
55135;DHT22;41031;44.750;11.308;2023-02-13T00:54:21;4.40;83.50
55135;DHT22;41031;44.750;11.308;2023-02-13T00:56:48;4.40;83.60
55135;DHT22;41031;44.750;11.308;2023-02-13T00:59:15;4.40;83.90
55135;DHT22;41031;44.750;11.308;2023-02-13T01:01:43;4.40;84.00
55135;DHT22;41031;44.750;11.308;2023-02-13T01:04:10;4.40;84.20
55135;DHT22;41031;44.750;11.308;2023-02-13T01:06:37;4.40;84.50
55135;DHT22;41031;44.750;11.308;2023-02-13T01:09:05;4.40;85.40
55135;DHT22;41031;44.750;11.308;2023-02-13T01:11:34;4.40;85.60
55135;DHT22;41031;44.750;11.308;2023-02-13T01:14:01;4.40;85.40
55135;DHT22;41031;44.750;11.308;2023-02-13T01:16:28;4.40;85.30
55135;DHT22;41031;44.750;11.308;2023-02-13T01:18:55;4.40;85.10
55135;DHT22;41031;44.750;11.308;2023-02-13T01:21:22;4.30;85.00
55135;DHT22;41031;44.750;11.308;2023-02-13T01:23:52;4.30;85.00
55135;DHT22;41031;44.750;11.308;2023-02-13T01:26:21;4.30;85.00
55135;DHT22;41031;44.750;11.308;2023-02-13T01:28:54;4.20;84.60
55135;DHT22;41031;44.750;11.308;2023-02-13T01:31:24;4.20;84.30
55135;DHT22;41031;44.750;11.308;2023-02-13T01:33:51;4.10;84.30
55135;DHT22;41031;44.750;11.308;2023-02-13T01:36:21;4.10;84.40
55135;DHT22;41031;44.750;11.308;2023-02-13T01:38:52;4.00;84.70
55135;DHT22;41031;44.750;11.308;2023-02-13T01:41:20;4.00;85.00
55135;DHT22;41031;44.750;11.308;2023-02-13T01:46:18;4.00;85.30
55135;DHT22;41031;44.750;11.308;2023-02-13T01:48:47;3.90;85.40
55135;DHT22;41031;44.750;11.308;2023-02-13T01:51:19;3.90;85.30
55135;DHT22;41031;44.750;11.308;2023-02-13T01:54:01;3.80;85.40
55135;DHT22;41031;44.750;11.308;2023-02-13T01:56:43;3.80;85.70
55135;DHT22;41031;44.750;11.308;2023-02-13T01:59:21;3.80;85.80
55135;DHT22;41031;44.750;11.308;2023-02-13T02:01:50;3.80;86.10
55135;DHT22;41031;44.750;11.308;2023-02-13T02:04:24;3.80;86.40
55135;DHT22;41031;44.750;11.308;2023-02-13T02:06:58;3.80;86.60
55135;DHT22;41031;44.750;11.308;2023-02-13T02:09:34;3.80;86.80
55135;DHT22;41031;44.750;11.308;2023-02-13T02:14:39;3.70;86.80
55135;DHT22;41031;44.750;11.308;2023-02-13T02:17:09;3.70;86.40
55135;DHT22;41031;44.750;11.308;2023-02-13T02:26:18;3.40;84.40
55135;DHT22;41031;44.750;11.308;2023-02-13T02:28:37;3.40;84.90
55135;DHT22;41031;44.750;11.308;2023-02-13T02:39:43;3.10;85.60
55135;DHT22;41031;44.750;11.308;2023-02-13T02:47:26;2.90;86.10
55135;DHT22;41031;44.750;11.308;2023-02-13T03:01:10;2.70;86.30
55135;DHT22;41031;44.750;11.308;2023-02-13T03:03:59;2.70;86.30
55135;DHT22;41031;44.750;11.308;2023-02-13T03:06:52;2.60;86.40
55135;DHT22;41031;44.750;11.308;2023-02-13T03:09:28;2.60;86.50
55135;DHT22;41031;44.750;11.308;2023-02-13T03:12:18;2.60;86.50
55135;DHT22;41031;44.750;11.308;2023-02-13T03:15:06;2.50;86.60
55135;DHT22;41031;44.750;11.308;2023-02-13T03:17:34;2.50;86.60
55135;DHT22;41031;44.750;11.308;2023-02-13T03:20:32;2.50;86.60
55135;DHT22;41031;44.750;11.308;2023-02-13T03:26:44;2.40;86.10
55135;DHT22;41031;44.750;11.308;2023-02-13T03:29:24;2.40;86.30
55135;DHT22;41031;44.750;11.308;2023-02-13T03:32:31;2.40;86.50
55135;DHT22;41031;44.750;11.308;2023-02-13T03:38:15;2.40;87.00
55135;DHT22;41031;44.750;11.308;2023-02-13T03:40:56;2.30;87.20
55135;DHT22;41031;44.750;11.308;2023-02-13T03:46:35;2.30;87.10
55135;DHT22;41031;44.750;11.308;2023-02-13T03:49:05;2.30;87.20
55135;DHT22;41031;44.750;11.308;2023-02-13T03:57:35;2.20;87.50
55135;DHT22;41031;44.750;11.308;2023-02-13T04:00:25;2.20;87.80
55135;DHT22;41031;44.750;11.308;2023-02-13T04:03:04;2.20;88.10
55135;DHT22;41031;44.750;11.308;2023-02-13T04:05:39;2.20;88.20
55135;DHT22;41031;44.750;11.308;2023-02-13T04:08:07;2.20;88.20
55135;DHT22;41031;44.750;11.308;2023-02-13T04:10:36;2.20;88.30
55135;DHT22;41031;44.750;11.308;2023-02-13T04:13:32;2.20;88.20
55135;DHT22;41031;44.750;11.308;2023-02-13T04:16:09;2.20;88.00
55135;DHT22;41031;44.750;11.308;2023-02-13T04:18:37;2.10;87.80
55135;DHT22;41031;44.750;11.308;2023-02-13T04:21:06;2.10;87.60
55135;DHT22;41031;44.750;11.308;2023-02-13T04:23:34;2.00;87.30
55135;DHT22;41031;44.750;11.308;2023-02-13T04:26:06;2.00;87.20
55135;DHT22;41031;44.750;11.308;2023-02-13T04:28:34;1.90;87.20
55135;DHT22;41031;44.750;11.308;2023-02-13T04:31:01;1.90;87.40
55135;DHT22;41031;44.750;11.308;2023-02-13T04:33:29;1.90;87.70
55135;DHT22;41031;44.750;11.308;2023-02-13T04:35:56;1.90;88.10
55135;DHT22;41031;44.750;11.308;2023-02-13T04:38:23;1.90;88.30
55135;DHT22;41031;44.750;11.308;2023-02-13T04:40:50;1.90;88.10
55135;DHT22;41031;44.750;11.308;2023-02-13T04:43:17;1.80;87.80
55135;DHT22;41031;44.750;11.308;2023-02-13T04:45:47;1.80;88.00
55135;DHT22;41031;44.750;11.308;2023-02-13T04:48:15;1.90;88.20
55135;DHT22;41031;44.750;11.308;2023-02-13T04:50:42;1.80;88.20
55135;DHT22;41031;44.750;11.308;2023-02-13T04:53:09;1.80;88.20
55135;DHT22;41031;44.750;11.308;2023-02-13T04:55:36;1.80;88.10
55135;DHT22;41031;44.750;11.308;2023-02-13T04:58:03;1.80;88.00
55135;DHT22;41031;44.750;11.308;2023-02-13T05:00:30;1.70;88.40
55135;DHT22;41031;44.750;11.308;2023-02-13T05:03:15;1.70;88.80
55135;DHT22;41031;44.750;11.308;2023-02-13T05:05:42;1.70;89.20
55135;DHT22;41031;44.750;11.308;2023-02-13T05:08:10;1.70;89.10
55135;DHT22;41031;44.750;11.308;2023-02-13T05:10:37;1.70;89.10
55135;DHT22;41031;44.750;11.308;2023-02-13T05:13:04;1.70;88.90
55135;DHT22;41031;44.750;11.308;2023-02-13T05:15:32;1.70;88.90
55135;DHT22;41031;44.750;11.308;2023-02-13T05:17:59;1.60;88.90
55135;DHT22;41031;44.750;11.308;2023-02-13T05:20:26;1.60;88.90
55135;DHT22;41031;44.750;11.308;2023-02-13T05:22:53;1.60;88.80
55135;DHT22;41031;44.750;11.308;2023-02-13T05:25:40;1.60;89.20
55135;DHT22;41031;44.750;11.308;2023-02-13T05:28:08;1.60;89.50
55135;DHT22;41031;44.750;11.308;2023-02-13T05:30:55;1.60;89.70
55135;DHT22;41031;44.750;11.308;2023-02-13T05:33:23;1.60;89.70
55135;DHT22;41031;44.750;11.308;2023-02-13T05:35:50;1.60;89.70
55135;DHT22;41031;44.750;11.308;2023-02-13T05:38:17;1.50;89.60
55135;DHT22;41031;44.750;11.308;2023-02-13T05:40:44;1.50;89.50
55135;DHT22;41031;44.750;11.308;2023-02-13T05:43:11;1.50;89.70
55135;DHT22;41031;44.750;11.308;2023-02-13T05:45:38;1.50;89.90
55135;DHT22;41031;44.750;11.308;2023-02-13T05:48:05;1.50;90.00
55135;DHT22;41031;44.750;11.308;2023-02-13T05:50:32;1.50;90.00
55135;DHT22;41031;44.750;11.308;2023-02-13T05:52:59;1.50;90.10
55135;DHT22;41031;44.750;11.308;2023-02-13T05:55:26;1.50;90.10
55135;DHT22;41031;44.750;11.308;2023-02-13T05:57:56;1.60;90.10
55135;DHT22;41031;44.750;11.308;2023-02-13T06:00:24;1.60;90.10
55135;DHT22;41031;44.750;11.308;2023-02-13T06:02:51;1.60;90.20
55135;DHT22;41031;44.750;11.308;2023-02-13T06:05:18;1.60;90.30
55135;DHT22;41031;44.750;11.308;2023-02-13T06:07:45;1.60;90.30
55135;DHT22;41031;44.750;11.308;2023-02-13T06:10:12;1.70;90.40
55135;DHT22;41031;44.750;11.308;2023-02-13T06:12:39;1.70;90.40
55135;DHT22;41031;44.750;11.308;2023-02-13T06:15:06;1.70;90.30
55135;DHT22;41031;44.750;11.308;2023-02-13T06:17:33;1.70;90.40
55135;DHT22;41031;44.750;11.308;2023-02-13T06:20:00;1.70;90.30
55135;DHT22;41031;44.750;11.308;2023-02-13T06:22:27;1.70;90.30
55135;DHT22;41031;44.750;11.308;2023-02-13T06:24:55;1.70;90.20
55135;DHT22;41031;44.750;11.308;2023-02-13T06:27:22;1.70;90.20
55135;DHT22;41031;44.750;11.308;2023-02-13T06:29:49;1.60;90.10
55135;DHT22;41031;44.750;11.308;2023-02-13T06:32:16;1.60;90.00
55135;DHT22;41031;44.750;11.308;2023-02-13T06:34:43;1.60;90.00
55135;DHT22;41031;44.750;11.308;2023-02-13T06:37:10;1.60;89.90
55135;DHT22;41031;44.750;11.308;2023-02-13T06:39:37;1.60;90.00
55135;DHT22;41031;44.750;11.308;2023-02-13T06:42:04;1.60;89.90
55135;DHT22;41031;44.750;11.308;2023-02-13T06:44:31;1.60;90.00
55135;DHT22;41031;44.750;11.308;2023-02-13T06:46:58;1.60;90.10
55135;DHT22;41031;44.750;11.308;2023-02-13T06:49:25;1.60;90.10
55135;DHT22;41031;44.750;11.308;2023-02-13T06:51:52;1.60;90.10
55135;DHT22;41031;44.750;11.308;2023-02-13T06:54:19;1.70;90.20
55135;DHT22;41031;44.750;11.308;2023-02-13T06:56:52;1.70;90.40
55135;DHT22;41031;44.750;11.308;2023-02-13T06:59:19;1.80;90.60
55135;DHT22;41031;44.750;11.308;2023-02-13T07:01:46;1.90;90.50
55135;DHT22;41031;44.750;11.308;2023-02-13T07:04:13;2.10;90.20
55135;DHT22;41031;44.750;11.308;2023-02-13T07:06:40;2.30;89.40
55135;DHT22;41031;44.750;11.308;2023-02-13T07:09:07;2.50;89.30
55135;DHT22;41031;44.750;11.308;2023-02-13T07:11:34;2.70;88.60
55135;DHT22;41031;44.750;11.308;2023-02-13T07:14:03;3.00;87.30
55135;DHT22;41031;44.750;11.308;2023-02-13T07:16:31;3.30;86.30
55135;DHT22;41031;44.750;11.308;2023-02-13T07:18:58;3.40;85.10
55135;DHT22;41031;44.750;11.308;2023-02-13T07:21:25;3.60;84.20
55135;DHT22;41031;44.750;11.308;2023-02-13T07:42:26;4.60;77.90
55135;DHT22;41031;44.750;11.308;2023-02-13T07:44:55;6.10;73.80
55135;DHT22;41031;44.750;11.308;2023-02-13T07:47:23;6.20;73.70
55135;DHT22;41031;44.750;11.308;2023-02-13T07:49:51;6.30;73.40
55135;DHT22;41031;44.750;11.308;2023-02-13T07:52:21;6.40;73.40
55135;DHT22;41031;44.750;11.308;2023-02-13T07:54:48;6.40;73.50
55135;DHT22;41031;44.750;11.308;2023-02-13T07:57:17;6.40;73.40
55135;DHT22;41031;44.750;11.308;2023-02-13T07:59:45;6.30;73.50
55135;DHT22;41031;44.750;11.308;2023-02-13T08:02:13;6.20;74.20
55135;DHT22;41031;44.750;11.308;2023-02-13T08:04:41;6.00;75.00
55135;DHT22;41031;44.750;11.308;2023-02-13T08:07:15;5.90;75.80
55135;DHT22;41031;44.750;11.308;2023-02-13T08:09:44;5.80;76.40
55135;DHT22;41031;44.750;11.308;2023-02-13T08:12:31;5.60;76.30
55135;DHT22;41031;44.750;11.308;2023-02-13T08:15:00;5.40;77.40
55135;DHT22;41031;44.750;11.308;2023-02-13T08:17:27;5.30;78.50
55135;DHT22;41031;44.750;11.308;2023-02-13T08:19:54;5.30;79.30
55135;DHT22;41031;44.750;11.308;2023-02-13T08:22:21;5.30;79.30
55135;DHT22;41031;44.750;11.308;2023-02-13T08:24:48;5.30;79.50
55135;DHT22;41031;44.750;11.308;2023-02-13T08:27:15;5.40;80.10
55135;DHT22;41031;44.750;11.308;2023-02-13T08:29:42;5.40;80.50
55135;DHT22;41031;44.750;11.308;2023-02-13T08:32:09;5.50;80.50
55135;DHT22;41031;44.750;11.308;2023-02-13T08:34:37;5.60;79.50
55135;DHT22;41031;44.750;11.308;2023-02-13T08:37:03;5.60;79.30
55135;DHT22;41031;44.750;11.308;2023-02-13T08:39:30;5.60;79.80
55135;DHT22;41031;44.750;11.308;2023-02-13T08:41:57;5.80;80.30
55135;DHT22;41031;44.750;11.308;2023-02-13T08:44:25;5.90;80.00
55135;DHT22;41031;44.750;11.308;2023-02-13T08:46:52;6.00;79.70
55135;DHT22;41031;44.750;11.308;2023-02-13T08:49:19;6.10;79.80
55135;DHT22;41031;44.750;11.308;2023-02-13T08:51:46;6.20;79.90
55135;DHT22;41031;44.750;11.308;2023-02-13T08:54:13;6.40;79.80
55135;DHT22;41031;44.750;11.308;2023-02-13T08:56:41;6.50;79.20
55135;DHT22;41031;44.750;11.308;2023-02-13T08:59:08;6.70;78.90
55135;DHT22;41031;44.750;11.308;2023-02-13T09:01:35;6.80;78.50
55135;DHT22;41031;44.750;11.308;2023-02-13T09:04:02;6.90;78.50
55135;DHT22;41031;44.750;11.308;2023-02-13T09:06:29;7.10;78.40
55135;DHT22;41031;44.750;11.308;2023-02-13T09:08:56;7.20;77.50
55135;DHT22;41031;44.750;11.308;2023-02-13T09:11:23;7.30;77.50
55135;DHT22;41031;44.750;11.308;2023-02-13T09:13:54;7.40;77.50
55135;DHT22;41031;44.750;11.308;2023-02-13T09:16:21;7.50;77.30
55135;DHT22;41031;44.750;11.308;2023-02-13T09:26:32;8.00;76.10
55135;DHT22;41031;44.750;11.308;2023-02-13T09:29:00;8.20;75.70
55135;DHT22;41031;44.750;11.308;2023-02-13T09:31:28;8.40;75.60
55135;DHT22;41031;44.750;11.308;2023-02-13T09:33:55;8.50;75.20
55135;DHT22;41031;44.750;11.308;2023-02-13T09:36:23;8.70;74.80
55135;DHT22;41031;44.750;11.308;2023-02-13T09:38:52;8.80;74.60
55135;DHT22;41031;44.750;11.308;2023-02-13T09:41:24;8.90;74.30
55135;DHT22;41031;44.750;11.308;2023-02-13T09:43:57;9.00;73.80
55135;DHT22;41031;44.750;11.308;2023-02-13T09:49:00;9.20;73.00
55135;DHT22;41031;44.750;11.308;2023-02-13T09:51:29;9.30;72.60
55135;DHT22;41031;44.750;11.308;2023-02-13T09:54:02;9.40;72.40
55135;DHT22;41031;44.750;11.308;2023-02-13T09:56:57;9.50;71.40
55135;DHT22;41031;44.750;11.308;2023-02-13T10:13:59;10.00;70.40
55135;DHT22;41031;44.750;11.308;2023-02-13T10:16:37;10.10;70.40
55135;DHT22;41031;44.750;11.308;2023-02-13T10:22:04;10.30;69.50
55135;DHT22;41031;44.750;11.308;2023-02-13T10:25:05;10.40;69.50
55135;DHT22;41031;44.750;11.308;2023-02-13T10:27:39;10.50;69.40
55135;DHT22;41031;44.750;11.308;2023-02-13T10:30:21;10.70;69.10
55135;DHT22;41031;44.750;11.308;2023-02-13T10:33:12;10.80;68.80
55135;DHT22;41031;44.750;11.308;2023-02-13T10:36:26;10.90;68.00
55135;DHT22;41031;44.750;11.308;2023-02-13T10:39:04;11.00;67.00
55135;DHT22;41031;44.750;11.308;2023-02-13T10:46:57;11.30;66.80
55135;DHT22;41031;44.750;11.308;2023-02-13T11:03:23;12.00;64.20
55135;DHT22;41031;44.750;11.308;2023-02-13T11:05:52;12.10;64.00
55135;DHT22;41031;44.750;11.308;2023-02-13T11:10:57;12.30;63.50
55135;DHT22;41031;44.750;11.308;2023-02-13T11:13:26;12.40;63.80
55135;DHT22;41031;44.750;11.308;2023-02-13T11:18:26;12.50;62.90
55135;DHT22;41031;44.750;11.308;2023-02-13T11:21:17;12.60;63.20
55135;DHT22;41031;44.750;11.308;2023-02-13T11:23:54;12.70;63.10
55135;DHT22;41031;44.750;11.308;2023-02-13T11:26:34;12.90;62.60
55135;DHT22;41031;44.750;11.308;2023-02-13T11:29:14;13.00;61.60
55135;DHT22;41031;44.750;11.308;2023-02-13T11:31:44;13.10;61.50
55135;DHT22;41031;44.750;11.308;2023-02-13T11:36:53;13.30;61.70
55135;DHT22;41031;44.750;11.308;2023-02-13T11:39:22;13.30;59.80
55135;DHT22;41031;44.750;11.308;2023-02-13T11:41:49;13.30;60.50
55135;DHT22;41031;44.750;11.308;2023-02-13T11:44:32;13.40;60.00
55135;DHT22;41031;44.750;11.308;2023-02-13T11:47:00;13.50;59.20
55135;DHT22;41031;44.750;11.308;2023-02-13T11:49:37;13.50;59.70
55135;DHT22;41031;44.750;11.308;2023-02-13T11:52:30;13.60;60.10
55135;DHT22;41031;44.750;11.308;2023-02-13T11:55:00;13.70;60.10
55135;DHT22;41031;44.750;11.308;2023-02-13T11:57:36;13.70;58.90
55135;DHT22;41031;44.750;11.308;2023-02-13T12:02:54;13.90;58.40
55135;DHT22;41031;44.750;11.308;2023-02-13T12:05:25;14.00;58.60
55135;DHT22;41031;44.750;11.308;2023-02-13T12:07:58;14.00;58.40
55135;DHT22;41031;44.750;11.308;2023-02-13T12:10:26;14.10;57.90
55135;DHT22;41031;44.750;11.308;2023-02-13T12:15:27;14.20;57.50
55135;DHT22;41031;44.750;11.308;2023-02-13T12:39:46;14.20;55.70
55135;DHT22;41031;44.750;11.308;2023-02-13T12:42:28;14.20;55.30
55135;DHT22;41031;44.750;11.308;2023-02-13T12:45:15;14.20;55.20
55135;DHT22;41031;44.750;11.308;2023-02-13T12:51:01;14.20;55.10
55135;DHT22;41031;44.750;11.308;2023-02-13T12:53:49;14.20;54.30
55135;DHT22;41031;44.750;11.308;2023-02-13T13:05:51;14.30;55.30
55135;DHT22;41031;44.750;11.308;2023-02-13T13:11:25;14.40;55.20
55135;DHT22;41031;44.750;11.308;2023-02-13T13:14:36;14.50;54.20
55135;DHT22;41031;44.750;11.308;2023-02-13T13:20:26;14.50;54.30
55135;DHT22;41031;44.750;11.308;2023-02-13T13:23:02;14.40;54.00
55135;DHT22;41031;44.750;11.308;2023-02-13T13:25:33;14.40;53.60
55135;DHT22;41031;44.750;11.308;2023-02-13T13:28:13;14.40;53.20
55135;DHT22;41031;44.750;11.308;2023-02-13T13:30:42;14.30;53.70
55135;DHT22;41031;44.750;11.308;2023-02-13T13:33:16;14.30;53.90
55135;DHT22;41031;44.750;11.308;2023-02-13T13:35:57;14.30;54.30
55135;DHT22;41031;44.750;11.308;2023-02-13T13:38:36;14.30;54.30
55135;DHT22;41031;44.750;11.308;2023-02-13T13:41:22;14.30;54.10
55135;DHT22;41031;44.750;11.308;2023-02-13T13:46:49;14.30;54.30
55135;DHT22;41031;44.750;11.308;2023-02-13T13:49:34;14.20;54.20
55135;DHT22;41031;44.750;11.308;2023-02-13T13:52:25;14.20;54.60
55135;DHT22;41031;44.750;11.308;2023-02-13T13:54:54;14.20;54.50
55135;DHT22;41031;44.750;11.308;2023-02-13T13:57:26;14.20;54.70
55135;DHT22;41031;44.750;11.308;2023-02-13T14:05:07;14.10;54.10
55135;DHT22;41031;44.750;11.308;2023-02-13T14:07:38;14.10;54.10
55135;DHT22;41031;44.750;11.308;2023-02-13T14:18:17;14.10;54.20
55135;DHT22;41031;44.750;11.308;2023-02-13T14:23:46;14.00;54.20
55135;DHT22;41031;44.750;11.308;2023-02-13T14:26:35;14.10;54.30
55135;DHT22;41031;44.750;11.308;2023-02-13T14:29:28;14.10;54.30
55135;DHT22;41031;44.750;11.308;2023-02-13T14:32:06;14.00;54.40
55135;DHT22;41031;44.750;11.308;2023-02-13T14:34:36;14.00;54.30
55135;DHT22;41031;44.750;11.308;2023-02-13T14:42:34;13.90;54.30
55135;DHT22;41031;44.750;11.308;2023-02-13T14:45:04;13.90;54.50
55135;DHT22;41031;44.750;11.308;2023-02-13T14:47:40;13.90;54.20
55135;DHT22;41031;44.750;11.308;2023-02-13T14:50:19;13.90;54.20
55135;DHT22;41031;44.750;11.308;2023-02-13T14:52:49;13.80;54.00
55135;DHT22;41031;44.750;11.308;2023-02-13T14:55:35;13.80;54.10
55135;DHT22;41031;44.750;11.308;2023-02-13T15:06:19;13.60;54.20
55135;DHT22;41031;44.750;11.308;2023-02-13T15:08:50;13.60;54.90
55135;DHT22;41031;44.750;11.308;2023-02-13T15:11:39;13.50;54.30
55135;DHT22;41031;44.750;11.308;2023-02-13T15:14:15;13.50;54.40
55135;DHT22;41031;44.750;11.308;2023-02-13T15:16:45;13.50;54.70
55135;DHT22;41031;44.750;11.308;2023-02-13T15:19:20;13.40;54.60
55135;DHT22;41031;44.750;11.308;2023-02-13T15:21:54;13.40;54.60
55135;DHT22;41031;44.750;11.308;2023-02-13T15:24:23;13.30;54.60
55135;DHT22;41031;44.750;11.308;2023-02-13T15:26:59;13.30;54.60
55135;DHT22;41031;44.750;11.308;2023-02-13T15:29:27;13.30;54.70
55135;DHT22;41031;44.750;11.308;2023-02-13T15:32:17;13.20;54.70
55135;DHT22;41031;44.750;11.308;2023-02-13T15:34:46;13.20;54.80
55135;DHT22;41031;44.750;11.308;2023-02-13T15:37:22;13.20;54.90
55135;DHT22;41031;44.750;11.308;2023-02-13T15:39:51;13.10;55.00
55135;DHT22;41031;44.750;11.308;2023-02-13T15:42:19;13.00;55.10
55135;DHT22;41031;44.750;11.308;2023-02-13T15:44:49;13.00;55.30
55135;DHT22;41031;44.750;11.308;2023-02-13T15:47:28;13.00;55.50
55135;DHT22;41031;44.750;11.308;2023-02-13T15:49:57;12.90;55.80
55135;DHT22;41031;44.750;11.308;2023-02-13T15:52:37;12.90;56.00
55135;DHT22;41031;44.750;11.308;2023-02-13T15:55:05;12.80;56.40
55135;DHT22;41031;44.750;11.308;2023-02-13T15:57:33;12.70;56.60
55135;DHT22;41031;44.750;11.308;2023-02-13T16:00:02;12.70;56.90
55135;DHT22;41031;44.750;11.308;2023-02-13T16:02:43;12.60;57.30
55135;DHT22;41031;44.750;11.308;2023-02-13T16:05:13;12.50;57.70
55135;DHT22;41031;44.750;11.308;2023-02-13T16:07:53;12.40;58.00
55135;DHT22;41031;44.750;11.308;2023-02-13T16:12:56;12.30;58.50
55135;DHT22;41031;44.750;11.308;2023-02-13T16:15:27;12.20;58.70
55135;DHT22;41031;44.750;11.308;2023-02-13T16:17:56;12.20;59.20
55135;DHT22;41031;44.750;11.308;2023-02-13T16:20:31;12.10;59.40
55135;DHT22;41031;44.750;11.308;2023-02-13T16:23:26;12.00;59.70
55135;DHT22;41031;44.750;11.308;2023-02-13T16:26:00;11.90;60.00
55135;DHT22;41031;44.750;11.308;2023-02-13T16:28:30;11.90;60.00
55135;DHT22;41031;44.750;11.308;2023-02-13T16:31:00;11.80;60.10
55135;DHT22;41031;44.750;11.308;2023-02-13T16:33:34;11.70;60.30
55135;DHT22;41031;44.750;11.308;2023-02-13T16:38:36;11.50;60.50
55135;DHT22;41031;44.750;11.308;2023-02-13T16:43:46;11.40;60.60
55135;DHT22;41031;44.750;11.308;2023-02-13T16:51:49;11.10;61.00
55135;DHT22;41031;44.750;11.308;2023-02-13T16:54:33;11.00;61.30
55135;DHT22;41031;44.750;11.308;2023-02-13T17:02:24;10.70;62.10
55135;DHT22;41031;44.750;11.308;2023-02-13T17:07:46;10.40;62.50
55135;DHT22;41031;44.750;11.308;2023-02-13T17:12:49;10.30;63.00
55135;DHT22;41031;44.750;11.308;2023-02-13T17:15:20;10.20;63.30
55135;DHT22;41031;44.750;11.308;2023-02-13T17:17:48;10.10;63.50
55135;DHT22;41031;44.750;11.308;2023-02-13T17:20:22;10.10;63.80
55135;DHT22;41031;44.750;11.308;2023-02-13T17:22:55;10.00;64.00
55135;DHT22;41031;44.750;11.308;2023-02-13T17:25:34;9.90;64.00
55135;DHT22;41031;44.750;11.308;2023-02-13T17:28:14;9.80;64.20
55135;DHT22;41031;44.750;11.308;2023-02-13T17:30:42;9.80;65.20
55135;DHT22;41031;44.750;11.308;2023-02-13T17:33:27;9.70;64.80
55135;DHT22;41031;44.750;11.308;2023-02-13T17:35:54;9.60;65.20
55135;DHT22;41031;44.750;11.308;2023-02-13T17:38:21;9.60;65.30
55135;DHT22;41031;44.750;11.308;2023-02-13T17:40:49;9.50;65.50
55135;DHT22;41031;44.750;11.308;2023-02-13T17:43:18;9.40;65.60
55135;DHT22;41031;44.750;11.308;2023-02-13T17:45:45;9.30;66.60
55135;DHT22;41031;44.750;11.308;2023-02-13T17:48:13;9.20;66.40
55135;DHT22;41031;44.750;11.308;2023-02-13T17:50:40;9.20;66.70
55135;DHT22;41031;44.750;11.308;2023-02-13T17:53:16;9.10;66.90
55135;DHT22;41031;44.750;11.308;2023-02-13T17:55:44;9.00;67.20
55135;DHT22;41031;44.750;11.308;2023-02-13T17:58:11;9.00;67.30
55135;DHT22;41031;44.750;11.308;2023-02-13T18:00:38;8.90;67.40
55135;DHT22;41031;44.750;11.308;2023-02-13T18:03:05;8.80;67.50
55135;DHT22;41031;44.750;11.308;2023-02-13T18:05:34;8.80;67.70
55135;DHT22;41031;44.750;11.308;2023-02-13T18:08:03;8.70;67.90
55135;DHT22;41031;44.750;11.308;2023-02-13T18:10:34;8.70;68.10
55135;DHT22;41031;44.750;11.308;2023-02-13T18:13:02;8.70;68.40
55135;DHT22;41031;44.750;11.308;2023-02-13T18:15:35;8.60;68.50
55135;DHT22;41031;44.750;11.308;2023-02-13T18:18:04;8.60;68.70
55135;DHT22;41031;44.750;11.308;2023-02-13T18:20:32;8.50;68.70
55135;DHT22;41031;44.750;11.308;2023-02-13T18:23:00;8.50;68.80
55135;DHT22;41031;44.750;11.308;2023-02-13T18:25:27;8.40;68.90
55135;DHT22;41031;44.750;11.308;2023-02-13T18:27:54;8.40;69.20
55135;DHT22;41031;44.750;11.308;2023-02-13T18:30:21;8.40;69.30
55135;DHT22;41031;44.750;11.308;2023-02-13T18:32:53;8.30;69.60
55135;DHT22;41031;44.750;11.308;2023-02-13T18:35:22;8.30;69.40
55135;DHT22;41031;44.750;11.308;2023-02-13T18:37:49;8.20;69.40
55135;DHT22;41031;44.750;11.308;2023-02-13T18:40:17;8.10;69.40
55135;DHT22;41031;44.750;11.308;2023-02-13T18:42:44;8.10;69.50
55135;DHT22;41031;44.750;11.308;2023-02-13T18:45:11;8.00;69.70
55135;DHT22;41031;44.750;11.308;2023-02-13T18:47:38;8.00;70.00
55135;DHT22;41031;44.750;11.308;2023-02-13T18:50:06;7.90;70.00
55135;DHT22;41031;44.750;11.308;2023-02-13T18:52:33;7.90;70.10
55135;DHT22;41031;44.750;11.308;2023-02-13T18:55:01;7.90;70.30
55135;DHT22;41031;44.750;11.308;2023-02-13T18:57:28;7.80;70.40
55135;DHT22;41031;44.750;11.308;2023-02-13T18:59:55;7.80;70.50
55135;DHT22;41031;44.750;11.308;2023-02-13T19:02:22;7.80;70.60
55135;DHT22;41031;44.750;11.308;2023-02-13T19:04:49;7.70;70.80
55135;DHT22;41031;44.750;11.308;2023-02-13T19:07:16;7.70;71.00
55135;DHT22;41031;44.750;11.308;2023-02-13T19:09:44;7.60;71.20
55135;DHT22;41031;44.750;11.308;2023-02-13T19:12:11;7.50;71.20
55135;DHT22;41031;44.750;11.308;2023-02-13T19:14:38;7.50;71.50
55135;DHT22;41031;44.750;11.308;2023-02-13T19:17:05;7.50;71.60
55135;DHT22;41031;44.750;11.308;2023-02-13T19:19:34;7.40;71.60
55135;DHT22;41031;44.750;11.308;2023-02-13T19:22:02;7.40;71.80
55135;DHT22;41031;44.750;11.308;2023-02-13T19:24:29;7.30;71.90
55135;DHT22;41031;44.750;11.308;2023-02-13T19:26:56;7.30;72.30
55135;DHT22;41031;44.750;11.308;2023-02-13T19:29:23;7.20;72.60
55135;DHT22;41031;44.750;11.308;2023-02-13T19:31:50;7.20;72.70
55135;DHT22;41031;44.750;11.308;2023-02-13T19:34:18;7.20;72.80
55135;DHT22;41031;44.750;11.308;2023-02-13T19:36:45;7.20;72.90
55135;DHT22;41031;44.750;11.308;2023-02-13T19:39:12;7.20;72.80
55135;DHT22;41031;44.750;11.308;2023-02-13T19:41:39;7.10;72.80